Time;durP1;ratioP1;P1;durP2;ratioP2;P2;SDS_P1;SDS_P2;PMS_P1;PMS_P2;Temp;Humidity;BMP_temperature;BMP_pressure;BME280_temperature;BME280_humidity;BME280_pressure;Samples;Min_cycle;Max_cycle;Signal;HPM_P1;HPM_P2
2024/01/10 00:01:03;;;;;;;9.05;5.70;;;;;;;-5.24;61.40;103054.97;5017449;28;20021;-53
2024/01/10 00:03:28;;;;;;;9.50;5.35;;;;;;;-5.26;61.80;103049.75;5017564;28;20025;-53
2024/01/10 00:05:54;;;;;;;8.40;5.50;;;;;;;-5.27;61.17;103044.53;5016521;28;20037;-52
2024/01/10 00:08:20;;;;;;;11.70;5.80;;;;;;;-5.30;61.90;103042.75;5016229;28;20029;-55
2024/01/10 00:10:45;;;;;;;7.78;5.57;;;;;;;-5.32;61.90;103041.84;5019996;28;20045;-54
2024/01/10 00:13:11;;;;;;;7.85;5.20;;;;;;;-5.33;62.00;103041.78;5018052;28;20102;-55
2024/01/10 00:15:36;;;;;;;10.00;5.93;;;;;;;-5.34;61.55;103043.50;5020740;28;20057;-51
2024/01/10 00:18:02;;;;;;;7.03;4.97;;;;;;;-5.36;61.97;103039.13;5015274;28;20112;-51
2024/01/10 00:20:27;;;;;;;8.40;5.35;;;;;;;-5.37;61.64;103029.63;5018652;28;20040;-51
2024/01/10 00:22:52;;;;;;;8.57;5.40;;;;;;;-5.41;62.32;103039.03;5011871;28;20034;-51
2024/01/10 00:25:18;;;;;;;8.10;5.50;;;;;;;-5.41;61.42;103031.25;5016228;28;20233;-52
2024/01/10 00:27:43;;;;;;;9.27;6.07;;;;;;;-5.43;62.00;103025.16;5020680;28;20049;-52
2024/01/10 00:30:08;;;;;;;11.18;6.03;;;;;;;-5.45;62.25;103021.66;5020738;28;20479;-55
2024/01/10 00:32:34;;;;;;;12.55;6.05;;;;;;;-5.46;61.96;103027.66;5018554;28;20026;-53
2024/01/10 00:34:59;;;;;;;9.93;6.05;;;;;;;-5.49;61.77;103025.88;5016735;28;20227;-55
2024/01/10 00:37:24;;;;;;;9.68;5.72;;;;;;;-5.50;62.52;103025.84;5017642;28;20029;-55
2024/01/10 00:39:49;;;;;;;8.95;5.88;;;;;;;-5.51;62.20;103031.84;5015667;28;20172;-52
2024/01/10 00:42:15;;;;;;;7.55;5.35;;;;;;;-5.53;62.21;103026.63;5017913;28;20045;-52
2024/01/10 00:44:40;;;;;;;8.38;5.40;;;;;;;-5.53;62.63;103029.22;5019716;28;20065;-55
2024/01/10 00:47:05;;;;;;;10.00;6.00;;;;;;;-5.54;62.42;103024.03;5016325;28;20547;-54
2024/01/10 00:49:30;;;;;;;10.15;6.20;;;;;;;-5.54;62.43;103026.63;5018976;28;20053;-56
2024/01/10 00:51:56;;;;;;;8.75;5.82;;;;;;;-5.55;62.69;103022.25;5017991;28;20052;-55
2024/01/10 00:54:21;;;;;;;9.07;5.47;;;;;;;-5.56;62.64;103023.97;5020198;28;20445;-55
2024/01/10 00:56:46;;;;;;;6.70;4.78;;;;;;;-5.56;62.50;103021.41;5013395;28;20361;-52
2024/01/10 00:59:12;;;;;;;7.10;4.65;;;;;;;-5.56;62.59;103018.81;5020428;28;20057;-54
2024/01/10 01:01:37;;;;;;;7.20;4.88;;;;;;;-5.58;62.21;103015.28;5018467;28;20028;-54
2024/01/10 01:04:02;;;;;;;6.72;5.05;;;;;;;-5.61;62.92;103016.09;5017605;28;20037;-55
2024/01/10 01:06:27;;;;;;;6.95;4.63;;;;;;;-5.60;62.53;103016.97;5020506;28;20062;-55
2024/01/10 01:08:53;;;;;;;7.43;4.65;;;;;;;-5.63;62.73;103012.59;5018444;28;20037;-55
2024/01/10 01:11:18;;;;;;;11.32;4.97;;;;;;;-5.64;62.49;103015.13;5017831;28;20029;-51
2024/01/10 01:13:44;;;;;;;7.90;5.00;;;;;;;-5.65;62.83;103014.25;5019050;28;20083;-56
2024/01/10 01:16:10;;;;;;;6.32;4.85;;;;;;;-5.66;62.94;103011.63;5017901;28;20970;-53
2024/01/10 01:18:35;;;;;;;6.78;5.00;;;;;;;-5.66;62.52;103011.63;5017745;28;20026;-52
2024/01/10 01:21:00;;;;;;;8.45;5.20;;;;;;;-5.69;63.13;103017.59;5012415;28;20032;-52
2024/01/10 01:23:26;;;;;;;8.55;5.18;;;;;;;-5.70;62.66;103009.78;5019724;28;20069;-54
2024/01/10 01:25:51;;;;;;;6.53;5.38;;;;;;;-5.70;62.96;103014.97;5008196;28;20026;-52
2024/01/10 01:28:16;;;;;;;6.95;5.05;;;;;;;-5.69;63.21;103008.97;5013704;28;20686;-55
2024/01/10 01:30:41;;;;;;;5.53;4.60;;;;;;;-5.71;62.97;103010.63;5001003;28;20030;-52
2024/01/10 01:33:07;;;;;;;8.52;5.15;;;;;;;-5.72;63.32;103003.72;5016946;28;20033;-54
2024/01/10 01:35:32;;;;;;;10.07;5.60;;;;;;;-5.73;63.92;103007.13;5018472;28;20092;-56
2024/01/10 01:37:58;;;;;;;6.57;5.00;;;;;;;-5.74;63.44;103002.78;5021715;28;20029;-53
2024/01/10 01:40:23;;;;;;;10.50;5.25;;;;;;;-5.76;63.38;103016.56;5019503;28;20033;-54
2024/01/10 01:42:48;;;;;;;9.23;5.15;;;;;;;-5.77;63.98;103007.03;5016460;28;20497;-54
2024/01/10 01:45:13;;;;;;;8.30;5.45;;;;;;;-5.78;63.84;103010.47;5018614;28;20121;-53
2024/01/10 01:47:40;;;;;;;8.90;5.97;;;;;;;-5.80;64.00;102999.19;5020449;28;20044;-54
2024/01/10 01:50:06;;;;;;;7.80;5.47;;;;;;;-5.80;64.78;103003.50;5019283;28;20097;-52
2024/01/10 01:52:34;;;;;;;7.28;5.32;;;;;;;-5.81;64.20;103004.31;5021167;28;20025;-51
2024/01/10 01:55:00;;;;;;;7.03;5.03;;;;;;;-5.82;64.74;103006.03;5015842;28;20034;-55
2024/01/10 01:57:25;;;;;;;8.18;5.85;;;;;;;-5.83;64.93;102999.13;5019034;28;20085;-55
2024/01/10 01:59:51;;;;;;;9.55;5.28;;;;;;;-5.83;64.93;103001.72;5014648;28;20033;-52
2024/01/10 02:02:16;;;;;;;7.55;5.35;;;;;;;-5.83;64.94;102995.66;5019024;28;20113;-53
2024/01/10 02:04:42;;;;;;;7.47;5.88;;;;;;;-5.84;64.63;102999.09;5017831;28;20062;-52
2024/01/10 02:07:07;;;;;;;7.50;5.22;;;;;;;-5.85;64.68;102994.75;5020499;28;20025;-52
2024/01/10 02:09:32;;;;;;;9.45;5.32;;;;;;;-5.85;65.40;103003.38;5016772;28;20037;-52
2024/01/10 02:11:58;;;;;;;7.38;4.93;;;;;;;-5.87;65.75;102996.44;5022747;28;20522;-55
2024/01/10 02:14:23;;;;;;;7.03;5.03;;;;;;;-5.88;64.65;102995.53;5018684;28;20486;-51
2024/01/10 02:16:48;;;;;;;7.75;5.18;;;;;;;-5.89;65.15;102998.97;5021299;28;20033;-52
2024/01/10 02:19:22;;;;;;;7.68;5.40;;;;;;;-5.88;65.30;103000.69;5018687;28;20121;-53
2024/01/10 02:21:47;;;;;;;7.35;4.75;;;;;;;-5.88;65.42;102995.53;5019394;28;20088;-55
2024/01/10 02:24:12;;;;;;;8.13;5.18;;;;;;;-5.88;66.15;102992.06;5021589;28;20042;-55
2024/01/10 02:26:39;;;;;;;9.05;5.38;;;;;;;-5.89;65.24;102987.75;5021984;28;20044;-54
2024/01/10 02:29:04;;;;;;;8.13;5.13;;;;;;;-5.91;66.12;102987.72;5019492;28;20029;-51
2024/01/10 02:31:29;;;;;;;7.50;6.38;;;;;;;-5.92;65.83;102988.53;5021037;28;20025;-53
2024/01/10 02:33:55;;;;;;;8.43;5.43;;;;;;;-5.93;66.60;102989.34;5015694;28;20038;-54
2024/01/10 02:36:20;;;;;;;7.80;5.65;;;;;;;-5.93;66.55;102993.66;5022693;28;20038;-52
2024/01/10 02:38:45;;;;;;;7.97;5.70;;;;;;;-5.94;65.95;102987.63;5023165;28;20121;-55
2024/01/10 02:41:10;;;;;;;6.60;5.00;;;;;;;-5.96;66.67;102985.00;5023653;28;20056;-51
2024/01/10 02:43:36;;;;;;;5.97;4.47;;;;;;;-5.95;66.47;102986.72;5018659;28;20021;-52
2024/01/10 02:46:01;;;;;;;6.65;5.00;;;;;;;-5.97;66.59;102980.69;5023193;28;20025;-53
2024/01/10 02:48:26;;;;;;;10.20;5.40;;;;;;;-5.97;66.60;102972.06;5018795;28;20096;-53
2024/01/10 02:50:54;;;;;;;8.77;5.30;;;;;;;-5.97;66.96;102978.09;5020809;28;20050;-53
2024/01/10 02:53:19;;;;;;;10.38;5.55;;;;;;;-5.98;66.70;102976.34;5018855;28;20021;-54
2024/01/10 02:55:46;;;;;;;7.53;5.32;;;;;;;-5.99;67.14;102971.13;5015074;28;20512;-52
2024/01/10 02:58:11;;;;;;;6.97;4.90;;;;;;;-5.97;67.23;102965.16;5020052;28;20487;-54
2024/01/10 03:00:37;;;;;;;7.97;5.32;;;;;;;-5.98;66.44;102966.00;5020520;28;20018;-51
2024/01/10 03:03:03;;;;;;;9.57;5.05;;;;;;;-5.97;66.90;102969.47;5018437;28;20025;-53
2024/01/10 03:05:28;;;;;;;7.85;5.38;;;;;;;-5.98;67.07;102970.28;5020889;28;20112;-53
2024/01/10 03:07:53;;;;;;;7.53;4.97;;;;;;;-5.98;66.67;102978.03;5017595;28;20053;-54
2024/01/10 03:10:19;;;;;;;5.90;4.68;;;;;;;-6.00;66.69;102967.66;5016265;28;20112;-54
2024/01/10 03:12:44;;;;;;;7.40;5.10;;;;;;;-6.00;66.94;102965.06;5023399;28;20025;-54
2024/01/10 03:15:09;;;;;;;6.80;5.15;;;;;;;-6.00;66.58;102957.31;5023680;28;21121;-54
2024/01/10 03:17:35;;;;;;;7.95;5.03;;;;;;;-6.01;66.82;102952.97;5021858;28;20026;-53
2024/01/10 03:20:02;;;;;;;8.13;5.13;;;;;;;-6.02;66.63;102947.78;5055188;28;20037;-54
2024/01/10 03:22:27;;;;;;;10.30;5.50;;;;;;;-6.03;67.07;102946.00;5017039;28;20021;-52
2024/01/10 03:24:52;;;;;;;9.05;5.25;;;;;;;-6.03;66.91;102949.50;5018682;28;20379;-53
2024/01/10 03:27:17;;;;;;;8.43;5.70;;;;;;;-6.04;67.02;102952.03;5018718;28;20084;-51
2024/01/10 03:29:43;;;;;;;7.32;5.60;;;;;;;-6.06;67.53;102949.41;5018241;28;20030;-52
2024/01/10 03:32:08;;;;;;;8.23;5.10;;;;;;;-6.05;67.71;102943.38;5019946;28;20113;-52
2024/01/10 03:34:33;;;;;;;7.80;5.05;;;;;;;-6.05;67.37;102950.28;5020377;28;20108;-53
2024/01/10 03:36:59;;;;;;;7.05;4.97;;;;;;;-6.06;67.56;102953.69;5019872;28;20148;-51
2024/01/10 03:39:24;;;;;;;8.25;5.60;;;;;;;-6.05;68.00;102940.78;5021291;28;20034;-52
2024/01/10 03:41:49;;;;;;;8.90;5.13;;;;;;;-6.05;68.37;102939.91;5018036;28;20026;-51
2024/01/10 03:44:14;;;;;;;7.32;5.03;;;;;;;-6.07;68.04;102942.47;5016354;28;20036;-52
2024/01/10 03:46:40;;;;;;;6.68;5.53;;;;;;;-6.06;68.16;102933.88;5017132;28;20053;-52
2024/01/10 03:49:05;;;;;;;7.65;5.45;;;;;;;-6.06;68.37;102927.81;5020631;28;20374;-51
2024/01/10 03:51:30;;;;;;;8.20;5.30;;;;;;;-6.06;68.39;102933.88;5022038;28;20026;-52
2024/01/10 03:53:56;;;;;;;7.43;5.30;;;;;;;-6.07;68.13;102929.53;5021896;28;20459;-53
2024/01/10 03:56:21;;;;;;;7.57;5.35;;;;;;;-6.08;68.50;102924.31;5018469;28;20057;-51
2024/01/10 03:58:48;;;;;;;9.77;5.75;;;;;;;-6.08;68.46;102919.16;5017185;28;20133;-51
2024/01/10 04:01:14;;;;;;;8.65;5.65;;;;;;;-6.10;68.80;102921.69;5023320;28;20041;-54
2024/01/10 04:03:42;;;;;;;9.27;5.63;;;;;;;-6.11;68.16;102919.06;5024716;28;20532;-51
2024/01/10 04:06:07;;;;;;;10.30;5.28;;;;;;;-6.09;67.79;102918.28;5018421;28;20403;-52
2024/01/10 04:08:32;;;;;;;9.23;5.63;;;;;;;-6.10;68.97;102918.25;5019813;28;20071;-53
2024/01/10 04:10:58;;;;;;;8.10;5.32;;;;;;;-6.09;68.62;102926.03;5017962;28;20030;-54
2024/01/10 04:13:23;;;;;;;8.50;5.63;;;;;;;-6.10;69.04;102915.66;5019498;28;20025;-52
2024/01/10 04:15:49;;;;;;;9.20;5.63;;;;;;;-6.10;68.51;102915.66;5016202;28;20138;-53
2024/01/10 04:18:14;;;;;;;9.40;5.63;;;;;;;-6.11;68.04;102914.78;5018923;28;20155;-52
2024/01/10 04:20:39;;;;;;;5.63;4.78;;;;;;;-6.12;69.16;102905.25;5016056;28;20033;-52
2024/01/10 04:23:05;;;;;;;10.65;5.50;;;;;;;-6.11;68.98;102912.19;5020730;28;20033;-53
2024/01/10 04:25:30;;;;;;;7.68;5.15;;;;;;;-6.10;69.11;102907.88;5019818;28;20025;-52
2024/01/10 04:27:57;;;;;;;8.75;5.20;;;;;;;-6.10;68.45;102915.66;5021223;28;20045;-51
2024/01/10 04:30:22;;;;;;;8.85;5.35;;;;;;;-6.12;68.89;102919.91;5018831;28;20032;-51
2024/01/10 04:32:48;;;;;;;9.45;5.63;;;;;;;-6.11;69.50;102916.47;5016123;28;20026;-52
2024/01/10 04:35:13;;;;;;;8.93;6.18;;;;;;;-6.11;68.98;102917.38;5018712;28;20097;-54
2024/01/10 04:37:38;;;;;;;9.00;5.45;;;;;;;-6.12;69.12;102907.84;5019503;28;20379;-52
2024/01/10 04:40:05;;;;;;;11.98;5.68;;;;;;;-6.12;69.44;102909.56;5020684;28;20033;-52
2024/01/10 04:42:30;;;;;;;8.65;5.45;;;;;;;-6.12;69.36;102904.41;5021924;28;20029;-51
2024/01/10 04:44:56;;;;;;;8.35;5.25;;;;;;;-6.14;69.92;102906.94;5020963;28;20040;-54
2024/01/10 04:47:21;;;;;;;8.48;5.22;;;;;;;-6.14;69.53;102909.53;5023219;28;20064;-53
2024/01/10 04:49:47;;;;;;;7.78;5.53;;;;;;;-6.15;69.90;102900.88;5016067;28;20069;-53
2024/01/10 04:52:12;;;;;;;8.55;5.22;;;;;;;-6.15;70.00;102910.34;5019134;28;20136;-54
2024/01/10 04:54:37;;;;;;;9.68;5.20;;;;;;;-6.16;70.11;102912.06;5014076;28;20091;-50
2024/01/10 04:57:03;;;;;;;7.13;4.93;;;;;;;-6.16;70.30;102904.31;5020983;28;20030;-54
2024/01/10 04:59:28;;;;;;;8.27;5.35;;;;;;;-6.16;69.48;102901.72;5015991;28;20077;-54
2024/01/10 05:01:54;;;;;;;9.18;5.30;;;;;;;-6.17;70.55;102901.69;5019490;28;20025;-50
2024/01/10 05:04:20;;;;;;;8.23;5.53;;;;;;;-6.18;70.45;102911.16;5018158;28;20030;-53
2024/01/10 05:06:45;;;;;;;7.07;4.72;;;;;;;-6.19;70.30;102900.78;5018130;28;20068;-50
2024/01/10 05:09:10;;;;;;;8.88;5.70;;;;;;;-6.17;70.08;102892.19;5021250;28;20041;-53
2024/01/10 05:11:36;;;;;;;8.45;5.65;;;;;;;-6.19;71.23;102896.47;5021871;28;20369;-54
2024/01/10 05:14:02;;;;;;;7.85;5.63;;;;;;;-6.20;71.19;102906.78;5021277;28;20021;-52
2024/01/10 05:16:28;;;;;;;7.93;4.97;;;;;;;-6.21;70.95;102902.41;5018386;28;20113;-54
2024/01/10 05:18:53;;;;;;;8.95;5.75;;;;;;;-6.23;70.83;102899.78;5016560;28;20113;-50
2024/01/10 05:21:18;;;;;;;6.22;4.95;;;;;;;-6.22;70.62;102898.97;5019196;28;20430;-53
2024/01/10 05:23:44;;;;;;;11.60;5.30;;;;;;;-6.23;71.37;102896.34;5018912;28;20030;-54
2024/01/10 05:26:10;;;;;;;10.45;6.07;;;;;;;-6.23;70.76;102904.09;5020029;28;20449;-53
2024/01/10 05:28:35;;;;;;;8.40;5.28;;;;;;;-6.24;70.28;102905.81;5018108;28;20451;-54
2024/01/10 05:31:00;;;;;;;8.55;5.38;;;;;;;-6.26;70.95;102899.75;5014651;28;20490;-51
2024/01/10 05:33:26;;;;;;;8.35;5.53;;;;;;;-6.25;70.73;102898.03;5019756;28;20095;-53
2024/01/10 05:35:51;;;;;;;8.90;5.78;;;;;;;-6.25;71.42;102898.03;5016400;28;20025;-53
2024/01/10 05:38:17;;;;;;;9.07;5.57;;;;;;;-6.25;71.25;102898.88;5021361;28;20076;-51
2024/01/10 05:40:42;;;;;;;9.40;5.78;;;;;;;-6.25;71.18;102903.19;5021727;28;20467;-50
2024/01/10 05:43:07;;;;;;;8.90;5.45;;;;;;;-6.24;70.98;102908.41;5017287;28;20025;-52
2024/01/10 05:45:33;;;;;;;9.93;5.95;;;;;;;-6.24;71.07;102908.41;5020008;28;20018;-55
2024/01/10 05:47:58;;;;;;;8.02;5.18;;;;;;;-6.22;70.78;102901.56;5016957;28;20029;-53
2024/01/10 05:50:24;;;;;;;8.93;5.30;;;;;;;-6.22;70.61;102896.38;5015708;28;20050;-51
2024/01/10 05:52:49;;;;;;;10.40;6.00;;;;;;;-6.19;70.93;102905.94;5018335;28;20387;-54
2024/01/10 05:55:14;;;;;;;9.57;5.10;;;;;;;-6.20;71.15;102905.06;5017520;28;20025;-51
2024/01/10 05:57:40;;;;;;;8.88;5.63;;;;;;;-6.19;70.39;102905.94;5023212;28;20046;-53
2024/01/10 06:00:09;;;;;;;10.75;5.75;;;;;;;-6.19;71.00;102904.22;5026555;28;20091;-52
2024/01/10 06:02:39;;;;;;;7.35;5.13;;;;;;;-6.19;70.78;102898.19;5021121;28;20487;-50
2024/01/10 06:05:09;;;;;;;7.50;5.07;;;;;;;-6.18;70.92;102895.66;5018928;28;20523;-53
2024/01/10 06:07:35;;;;;;;8.10;5.10;;;;;;;-6.17;70.82;102899.97;5025331;28;20034;-54
2024/01/10 06:10:01;;;;;;;8.82;5.32;;;;;;;-6.17;70.99;102899.97;5022048;28;20501;-53
2024/01/10 06:12:26;;;;;;;6.15;4.55;;;;;;;-6.17;71.28;102899.97;5019848;28;20495;-54
2024/01/10 06:14:51;;;;;;;8.13;5.40;;;;;;;-6.15;71.56;102897.41;5019062;28;20081;-53
2024/01/10 06:17:17;;;;;;;7.05;5.43;;;;;;;-6.13;71.01;102900.91;5020067;28;20111;-53
2024/01/10 06:19:42;;;;;;;8.75;5.75;;;;;;;-6.14;70.83;102894.00;5018375;28;20021;-51
2024/01/10 06:22:07;;;;;;;10.73;5.45;;;;;;;-6.13;71.13;102895.75;5019674;28;20447;-54
2024/01/10 06:24:32;;;;;;;7.55;5.35;;;;;;;-6.15;70.77;102887.94;5020748;28;20097;-52
2024/01/10 06:26:59;;;;;;;7.32;5.05;;;;;;;-6.13;70.68;102893.16;5021042;28;20056;-51
2024/01/10 06:29:24;;;;;;;7.25;5.13;;;;;;;-6.13;71.34;102887.97;5019545;28;20029;-52
2024/01/10 06:31:49;;;;;;;8.90;5.65;;;;;;;-6.12;70.87;102891.47;5019815;28;20071;-54
2024/01/10 06:34:15;;;;;;;8.15;5.22;;;;;;;-6.15;71.51;102890.53;5019754;28;20030;-50
2024/01/10 06:36:40;;;;;;;7.50;5.32;;;;;;;-6.16;71.89;102896.56;5022214;28;20121;-53
2024/01/10 06:39:05;;;;;;;6.63;5.03;;;;;;;-6.16;71.57;102893.97;5018036;28;20474;-51
2024/01/10 06:41:31;;;;;;;8.88;5.18;;;;;;;-6.18;71.92;102903.41;5024538;28;20069;-52
2024/01/10 06:43:57;;;;;;;9.70;5.50;;;;;;;-6.20;71.60;102901.59;5020092;28;20026;-51
2024/01/10 06:46:22;;;;;;;9.07;6.10;;;;;;;-6.21;71.22;102897.25;5019798;28;20029;-50
2024/01/10 06:48:47;;;;;;;10.63;6.65;;;;;;;-6.23;71.51;102893.75;5023881;28;20045;-51
2024/01/10 06:51:13;;;;;;;9.65;5.57;;;;;;;-6.22;71.71;102892.94;5019492;28;20054;-51
2024/01/10 06:53:39;;;;;;;10.50;5.93;;;;;;;-6.25;72.10;102888.53;5021109;28;20037;-51
2024/01/10 06:56:05;;;;;;;8.23;5.40;;;;;;;-6.25;72.08;102895.44;5012623;28;20030;-53
2024/01/10 06:58:31;;;;;;;7.50;5.55;;;;;;;-6.26;71.90;102891.97;5021377;28;20034;-52
2024/01/10 07:00:56;;;;;;;9.73;5.28;;;;;;;-6.26;72.54;102893.66;5022470;28;20026;-52
2024/01/10 07:03:21;;;;;;;12.18;5.82;;;;;;;-6.29;72.32;102886.72;5017887;28;20025;-51
2024/01/10 07:05:47;;;;;;;8.77;5.43;;;;;;;-6.27;72.07;102894.53;5022370;28;20079;-53
2024/01/10 07:08:12;;;;;;;8.70;5.40;;;;;;;-6.27;72.49;102903.16;5018476;28;20037;-53
2024/01/10 07:10:38;;;;;;;9.75;6.00;;;;;;;-6.28;73.07;102898.78;5010788;28;20475;-54
2024/01/10 07:13:04;;;;;;;9.27;5.53;;;;;;;-6.29;72.53;102901.34;5019756;28;20386;-50
2024/01/10 07:15:30;;;;;;;7.22;5.18;;;;;;;-6.30;72.53;102905.66;5016452;28;20109;-51
2024/01/10 07:17:55;;;;;;;9.55;6.20;;;;;;;-6.29;72.56;102914.28;5020770;28;20452;-50
2024/01/10 07:20:20;;;;;;;9.82;6.03;;;;;;;-6.31;72.81;102898.75;5017959;28;20018;-54
2024/01/10 07:22:45;;;;;;;8.65;5.75;;;;;;;-6.32;72.84;102905.59;5020083;28;20087;-50
2024/01/10 07:25:14;;;;;;;10.15;6.03;;;;;;;-6.32;72.91;102895.25;5020337;28;20364;-54
2024/01/10 07:27:40;;;;;;;8.05;5.32;;;;;;;-6.30;73.97;102887.53;5017982;28;20033;-51
2024/01/10 07:30:13;;;;;;;9.43;5.78;;;;;;;-6.26;73.04;102888.50;5025673;28;20033;-54
2024/01/10 07:32:38;;;;;;;10.38;5.78;;;;;;;-6.26;73.01;102881.63;5020507;28;20033;-51
2024/01/10 07:35:04;;;;;;;10.05;6.03;;;;;;;-6.29;73.05;102884.13;5017308;28;20034;-54
2024/01/10 07:37:29;;;;;;;9.35;6.07;;;;;;;-6.30;72.65;102884.97;5018320;28;20505;-50
2024/01/10 07:39:56;;;;;;;11.50;6.38;;;;;;;-6.33;73.79;102890.94;5009030;28;20041;-51
2024/01/10 07:42:21;;;;;;;10.55;6.00;;;;;;;-6.37;73.08;102883.94;5017987;28;20029;-53
2024/01/10 07:44:46;;;;;;;9.20;6.07;;;;;;;-6.41;73.97;102884.69;5014713;28;20083;-54
2024/01/10 07:47:11;;;;;;;10.73;6.30;;;;;;;-6.45;72.92;102877.66;5016058;28;20037;-54
2024/01/10 07:49:37;;;;;;;8.57;6.00;;;;;;;-6.48;73.68;102887.06;5015513;28;20061;-51
2024/01/10 07:52:04;;;;;;;9.30;5.90;;;;;;;-6.53;74.30;102876.59;5019943;28;20021;-53
2024/01/10 07:54:31;;;;;;;10.77;6.97;;;;;;;-6.55;73.75;102880.84;5015740;28;20037;-55
2024/01/10 07:56:57;;;;;;;11.27;6.97;;;;;;;-6.60;74.40;102888.47;5019510;28;20029;-52
2024/01/10 07:59:22;;;;;;;10.30;6.30;;;;;;;-6.64;73.94;102894.41;5019494;28;20036;-54
2024/01/10 08:01:56;;;;;;;12.05;6.30;;;;;;;-6.67;74.13;102891.72;5016735;28;20076;-54
2024/01/10 08:04:22;;;;;;;11.25;6.38;;;;;;;-6.69;73.87;102896.00;5011740;28;20049;-52
2024/01/10 08:06:48;;;;;;;10.32;6.38;;;;;;;-6.69;74.11;102893.41;5015005;28;20037;-51
2024/01/10 08:09:14;;;;;;;10.50;6.85;;;;;;;-6.71;74.55;102895.94;5017694;28;20045;-54
2024/01/10 08:11:40;;;;;;;10.02;6.32;;;;;;;-6.72;74.84;102891.59;5013166;28;20018;-53
2024/01/10 08:14:05;;;;;;;11.43;7.15;;;;;;;-6.71;75.00;102889.88;5015515;28;20038;-54
2024/01/10 08:16:32;;;;;;;9.68;5.95;;;;;;;-6.73;74.83;102888.97;5020485;28;20068;-52
2024/01/10 08:18:58;;;;;;;10.32;6.95;;;;;;;-6.71;74.47;102913.13;5014079;28;20392;-52
2024/01/10 08:21:24;;;;;;;13.25;7.45;;;;;;;-6.71;74.42;102908.88;5017532;28;20080;-51
2024/01/10 08:23:50;;;;;;;13.57;6.72;;;;;;;-6.71;75.37;102907.97;5012843;28;20029;-54
2024/01/10 08:26:15;;;;;;;9.50;6.40;;;;;;;-6.71;74.81;102908.88;5018169;28;20025;-52
2024/01/10 08:28:40;;;;;;;13.15;7.80;;;;;;;-6.68;74.92;102915.81;5019006;28;20033;-54
2024/01/10 08:31:07;;;;;;;15.02;7.78;;;;;;;-6.69;74.94;102906.31;5015525;28;20026;-54
2024/01/10 08:33:32;;;;;;;11.32;7.05;;;;;;;-6.67;74.93;102917.56;5020518;28;20060;-52
2024/01/10 08:35:58;;;;;;;9.80;6.85;;;;;;;-6.66;75.44;102914.19;5021187;28;20033;-52
2024/01/10 08:38:24;;;;;;;9.85;6.80;;;;;;;-6.63;74.97;102914.22;5016962;28;20052;-52
2024/01/10 08:40:49;;;;;;;10.80;6.63;;;;;;;-6.62;74.99;102907.38;5022110;28;20022;-53
2024/01/10 08:43:14;;;;;;;9.50;6.60;;;;;;;-6.60;75.59;102906.56;5015110;28;20054;-53
2024/01/10 08:45:40;;;;;;;10.65;6.95;;;;;;;-6.58;74.77;102907.50;5015612;28;20480;-52
2024/01/10 08:48:06;;;;;;;11.85;6.90;;;;;;;-6.54;74.93;102909.31;5018710;28;20026;-51
2024/01/10 08:50:33;;;;;;;12.80;7.15;;;;;;;-6.53;74.78;102911.09;5012473;28;20038;-52
2024/01/10 08:52:59;;;;;;;11.23;6.93;;;;;;;-6.48;74.96;102912.91;5013706;28;20032;-52
2024/01/10 08:55:24;;;;;;;14.50;7.85;;;;;;;-6.45;74.59;102907.84;5017233;28;20108;-53
2024/01/10 08:57:49;;;;;;;10.80;6.63;;;;;;;-6.40;74.83;102916.59;5017314;28;20048;-52
2024/01/10 09:00:15;;;;;;;11.45;7.07;;;;;;;-6.37;75.04;102912.38;5020336;28;20040;-55
2024/01/10 09:02:41;;;;;;;14.65;7.10;;;;;;;-6.28;74.47;102922.06;5020902;28;20128;-52
2024/01/10 09:05:09;;;;;;;10.80;6.57;;;;;;;-6.23;74.08;102910.13;5016035;28;20132;-55
2024/01/10 09:07:35;;;;;;;12.27;6.97;;;;;;;-6.14;73.43;102922.47;5014058;28;20036;-55
2024/01/10 09:10:00;;;;;;;10.82;7.28;;;;;;;-6.06;73.42;102914.88;5016110;28;20281;-51
2024/01/10 09:12:26;;;;;;;11.90;7.95;;;;;;;-6.00;72.57;102913.31;5015347;28;20441;-51
2024/01/10 09:14:51;;;;;;;12.18;7.10;;;;;;;-5.91;73.10;102906.59;5005124;28;20057;-50
2024/01/10 09:17:17;;;;;;;11.48;7.00;;;;;;;-5.84;72.42;102914.56;5018345;28;20723;-53
2024/01/10 09:19:42;;;;;;;10.40;6.80;;;;;;;-5.73;72.54;102917.41;5014978;28;20041;-52
2024/01/10 09:22:07;;;;;;;11.20;7.00;;;;;;;-5.63;71.74;102915.91;5015017;28;20030;-52
2024/01/10 09:24:32;;;;;;;13.70;7.35;;;;;;;-5.55;70.82;102924.75;5015114;28;20543;-55
2024/01/10 09:26:58;;;;;;;14.82;7.60;;;;;;;-5.46;70.82;102917.19;5015022;28;20034;-54
2024/01/10 09:29:25;;;;;;;12.90;6.97;;;;;;;-5.35;70.63;102919.16;5015580;28;20033;-54
2024/01/10 09:31:50;;;;;;;14.52;7.68;;;;;;;-5.24;70.12;102926.31;5015602;28;20033;-53
2024/01/10 09:34:16;;;;;;;12.90;7.82;;;;;;;-5.13;69.46;102925.69;5018408;28;20033;-51
2024/01/10 09:36:42;;;;;;;12.70;7.85;;;;;;;-5.03;69.12;102927.63;5023275;28;20425;-56
2024/01/10 09:39:13;;;;;;;11.73;7.72;;;;;;;-4.93;68.38;102924.44;5018212;28;20486;-55
2024/01/10 09:41:42;;;;;;;12.32;7.28;;;;;;;-4.82;68.91;102931.53;5022674;28;20030;-52
2024/01/10 09:44:07;;;;;;;11.13;6.90;;;;;;;-4.74;67.85;102933.44;5021115;28;20029;-54
2024/01/10 09:46:36;;;;;;;15.13;8.68;;;;;;;-4.67;67.70;102918.88;5020944;28;20037;-52
2024/01/10 09:49:02;;;;;;;12.88;8.10;;;;;;;-4.56;67.45;102930.34;5018051;28;20029;-53
2024/01/10 09:51:29;;;;;;;15.98;8.20;;;;;;;-4.46;67.43;102927.09;5019694;28;20473;-53
2024/01/10 09:53:57;;;;;;;13.40;7.47;;;;;;;-4.34;66.38;102928.19;5022959;28;20026;-53
2024/01/10 09:56:23;;;;;;;14.27;8.40;;;;;;;-4.23;66.96;102925.78;5016372;28;20037;-54
2024/01/10 09:58:50;;;;;;;12.95;7.72;;;;;;;-4.12;67.60;102929.44;5022750;28;20025;-54
2024/01/10 10:01:16;;;;;;;12.25;7.35;;;;;;;-4.00;66.70;102936.56;5021949;28;20034;-52
2024/01/10 10:03:45;;;;;;;13.30;7.95;;;;;;;-3.89;66.12;102935.03;5021061;28;20534;-55
2024/01/10 10:06:11;;;;;;;15.80;8.30;;;;;;;-3.78;64.32;102932.63;5020786;28;20088;-54
2024/01/10 10:08:38;;;;;;;12.98;8.05;;;;;;;-3.71;64.27;102926.69;5018143;28;20025;-54
2024/01/10 10:11:03;;;;;;;13.05;7.47;;;;;;;-3.63;63.78;102932.00;5019697;28;20018;-52
2024/01/10 10:13:29;;;;;;;13.90;8.30;;;;;;;-3.55;63.44;102928.69;5017052;28;20055;-51
2024/01/10 10:16:02;;;;;;;14.90;8.25;;;;;;;-3.46;63.30;102927.94;5024709;28;20033;-52
2024/01/10 10:18:31;;;;;;;13.52;8.07;;;;;;;-3.39;63.91;102927.19;5015669;28;20026;-55
2024/01/10 10:21:27;;;;;;;12.88;7.80;;;;;;;-3.24;63.63;102926.53;5023484;28;20033;-56
2024/01/10 10:24:00;;;;;;;16.50;7.93;;;;;;;-3.10;62.84;102928.47;5014269;28;20410;-52
2024/01/10 10:26:27;;;;;;;14.88;8.95;;;;;;;-3.01;61.44;102934.66;5018749;28;20021;-55
2024/01/10 10:28:52;;;;;;;17.25;8.65;;;;;;;-2.97;60.96;102928.63;5019837;28;20091;-55
2024/01/10 10:31:18;;;;;;;15.60;8.32;;;;;;;-2.90;61.33;102919.19;5017685;28;20104;-53
2024/01/10 10:33:45;;;;;;;14.60;8.65;;;;;;;-2.81;60.98;102916.72;5018930;28;20029;-55
2024/01/10 10:36:10;;;;;;;15.68;8.35;;;;;;;-2.71;60.32;102917.72;5022983;28;20025;-54
2024/01/10 10:38:39;;;;;;;13.63;8.40;;;;;;;-2.67;59.37;102909.06;5017539;28;20041;-53
2024/01/10 10:41:10;;;;;;;16.42;8.43;;;;;;;-2.64;58.96;102903.91;5021881;28;20036;-56
2024/01/10 10:43:37;;;;;;;12.45;7.68;;;;;;;-2.59;59.86;102898.75;5015010;28;20030;-52
2024/01/10 10:46:04;;;;;;;14.00;8.48;;;;;;;-2.48;60.18;102901.47;5020551;28;20486;-53
2024/01/10 10:48:34;;;;;;;13.80;8.27;;;;;;;-2.41;58.80;102895.50;5016318;28;20048;-54
2024/01/10 10:51:06;;;;;;;21.65;12.23;;;;;;;-2.30;60.86;102896.50;5017469;28;20128;-54
2024/01/10 10:53:33;;;;;;;21.15;13.30;;;;;;;-2.21;58.55;102900.91;5017724;28;20057;-52
2024/01/10 10:55:59;;;;;;;27.55;21.10;;;;;;;-2.12;57.83;102906.19;5024409;28;20026;-52
2024/01/10 10:58:24;;;;;;;18.75;9.40;;;;;;;-2.03;58.18;102899.31;5022613;28;20083;-55
2024/01/10 11:00:50;;;;;;;14.20;9.20;;;;;;;-1.92;58.71;102901.16;5026738;28;20052;-55
2024/01/10 11:03:17;;;;;;;14.57;8.82;;;;;;;-1.84;57.01;102903.84;5024730;28;20029;-53
2024/01/10 11:05:43;;;;;;;17.15;9.10;;;;;;;-1.75;57.27;102906.53;5018177;28;20029;-52
2024/01/10 11:08:16;;;;;;;15.75;8.50;;;;;;;-1.73;55.74;102904.81;5020243;28;20037;-55
2024/01/10 11:10:43;;;;;;;16.88;9.50;;;;;;;-1.67;56.46;102898.75;5014621;28;20048;-55
2024/01/10 11:13:32;;;;;;;16.63;8.40;;;;;;;-1.64;54.71;102897.91;5018368;28;20475;-54
2024/01/10 11:16:37;;;;;;;16.40;9.15;;;;;;;-1.59;55.92;102898.81;5017799;28;20030;-54